sensor_id;sensor_type;location;lat;lon;timestamp;P1;durP1;ratioP1;P2;durP2;ratioP2
5961;SDS011;3007;50.770;0.250;2023-11-19T00:00:12;51.10;;;10.50;;
5961;SDS011;3007;50.770;0.250;2023-11-19T00:02:40;59.20;;;10.13;;
5961;SDS011;3007;50.770;0.250;2023-11-19T00:05:07;51.80;;;9.97;;
5961;SDS011;3007;50.770;0.250;2023-11-19T00:07:37;48.90;;;9.07;;
5961;SDS011;3007;50.770;0.250;2023-11-19T00:10:08;56.30;;;10.90;;
5961;SDS011;3007;50.770;0.250;2023-11-19T00:12:36;47.43;;;8.83;;
5961;SDS011;3007;50.770;0.250;2023-11-19T00:15:03;59.00;;;10.73;;
5961;SDS011;3007;50.770;0.250;2023-11-19T00:17:31;52.20;;;10.40;;
5961;SDS011;3007;50.770;0.250;2023-11-19T00:19:57;58.80;;;11.60;;
5961;SDS011;3007;50.770;0.250;2023-11-19T00:22:24;47.40;;;10.13;;
5961;SDS011;3007;50.770;0.250;2023-11-19T00:24:51;60.70;;;10.80;;
5961;SDS011;3007;50.770;0.250;2023-11-19T00:27:19;55.53;;;10.97;;
5961;SDS011;3007;50.770;0.250;2023-11-19T00:29:46;69.50;;;11.13;;
5961;SDS011;3007;50.770;0.250;2023-11-19T00:32:13;57.43;;;11.80;;
5961;SDS011;3007;50.770;0.250;2023-11-19T00:34:40;58.03;;;10.23;;
5961;SDS011;3007;50.770;0.250;2023-11-19T00:37:09;65.67;;;10.70;;
5961;SDS011;3007;50.770;0.250;2023-11-19T00:39:36;64.27;;;10.83;;
5961;SDS011;3007;50.770;0.250;2023-11-19T00:42:03;59.47;;;10.53;;
5961;SDS011;3007;50.770;0.250;2023-11-19T00:44:31;58.93;;;9.90;;
5961;SDS011;3007;50.770;0.250;2023-11-19T00:46:58;53.80;;;10.10;;
5961;SDS011;3007;50.770;0.250;2023-11-19T00:49:25;57.67;;;10.87;;
5961;SDS011;3007;50.770;0.250;2023-11-19T00:51:52;51.63;;;10.00;;
5961;SDS011;3007;50.770;0.250;2023-11-19T00:54:19;48.67;;;10.37;;
5961;SDS011;3007;50.770;0.250;2023-11-19T00:56:46;59.73;;;10.60;;
5961;SDS011;3007;50.770;0.250;2023-11-19T00:59:13;60.33;;;9.97;;
5961;SDS011;3007;50.770;0.250;2023-11-19T01:01:41;48.27;;;10.03;;
5961;SDS011;3007;50.770;0.250;2023-11-19T01:04:08;58.17;;;11.73;;
5961;SDS011;3007;50.770;0.250;2023-11-19T01:06:35;52.57;;;10.07;;
5961;SDS011;3007;50.770;0.250;2023-11-19T01:09:02;62.13;;;10.27;;
5961;SDS011;3007;50.770;0.250;2023-11-19T01:11:29;57.13;;;11.20;;
5961;SDS011;3007;50.770;0.250;2023-11-19T01:13:57;53.30;;;10.10;;
5961;SDS011;3007;50.770;0.250;2023-11-19T01:16:23;59.07;;;11.40;;
5961;SDS011;3007;50.770;0.250;2023-11-19T01:18:53;56.63;;;9.80;;
5961;SDS011;3007;50.770;0.250;2023-11-19T01:21:21;57.37;;;10.90;;
5961;SDS011;3007;50.770;0.250;2023-11-19T01:23:48;60.73;;;10.67;;
5961;SDS011;3007;50.770;0.250;2023-11-19T01:26:15;57.67;;;9.90;;
5961;SDS011;3007;50.770;0.250;2023-11-19T01:28:41;52.47;;;10.40;;
5961;SDS011;3007;50.770;0.250;2023-11-19T01:31:10;53.40;;;9.10;;
5961;SDS011;3007;50.770;0.250;2023-11-19T01:33:37;56.73;;;9.50;;
5961;SDS011;3007;50.770;0.250;2023-11-19T01:36:06;55.60;;;10.00;;
5961;SDS011;3007;50.770;0.250;2023-11-19T01:38:34;57.07;;;9.50;;
5961;SDS011;3007;50.770;0.250;2023-11-19T01:41:02;54.93;;;10.50;;
5961;SDS011;3007;50.770;0.250;2023-11-19T01:43:32;54.00;;;10.90;;
5961;SDS011;3007;50.770;0.250;2023-11-19T01:46:00;48.57;;;8.50;;
5961;SDS011;3007;50.770;0.250;2023-11-19T01:48:27;46.33;;;9.77;;
5961;SDS011;3007;50.770;0.250;2023-11-19T01:50:54;51.43;;;9.97;;
5961;SDS011;3007;50.770;0.250;2023-11-19T01:53:23;54.83;;;8.83;;
5961;SDS011;3007;50.770;0.250;2023-11-19T01:55:51;52.23;;;9.33;;
5961;SDS011;3007;50.770;0.250;2023-11-19T01:58:18;57.87;;;12.27;;
5961;SDS011;3007;50.770;0.250;2023-11-19T02:00:45;44.70;;;9.53;;
5961;SDS011;3007;50.770;0.250;2023-11-19T02:03:14;55.57;;;8.90;;
5961;SDS011;3007;50.770;0.250;2023-11-19T02:05:41;55.33;;;9.83;;
5961;SDS011;3007;50.770;0.250;2023-11-19T02:08:08;50.33;;;10.33;;
5961;SDS011;3007;50.770;0.250;2023-11-19T02:10:36;48.47;;;9.50;;
5961;SDS011;3007;50.770;0.250;2023-11-19T02:13:03;42.90;;;8.83;;
5961;SDS011;3007;50.770;0.250;2023-11-19T02:15:32;47.40;;;9.00;;
5961;SDS011;3007;50.770;0.250;2023-11-19T02:20:43;53.60;;;10.33;;
5961;SDS011;3007;50.770;0.250;2023-11-19T02:23:10;63.17;;;11.00;;
5961;SDS011;3007;50.770;0.250;2023-11-19T02:25:39;46.10;;;10.07;;
5961;SDS011;3007;50.770;0.250;2023-11-19T02:28:08;56.93;;;10.00;;
5961;SDS011;3007;50.770;0.250;2023-11-19T02:30:37;44.93;;;8.13;;
5961;SDS011;3007;50.770;0.250;2023-11-19T02:33:03;50.37;;;9.57;;
5961;SDS011;3007;50.770;0.250;2023-11-19T02:35:31;45.23;;;8.80;;
5961;SDS011;3007;50.770;0.250;2023-11-19T02:37:58;50.83;;;10.17;;
5961;SDS011;3007;50.770;0.250;2023-11-19T02:40:25;50.37;;;9.67;;
5961;SDS011;3007;50.770;0.250;2023-11-19T02:42:52;47.13;;;9.40;;
5961;SDS011;3007;50.770;0.250;2023-11-19T02:45:21;49.80;;;9.70;;
5961;SDS011;3007;50.770;0.250;2023-11-19T02:47:48;48.07;;;9.43;;
5961;SDS011;3007;50.770;0.250;2023-11-19T02:50:16;50.60;;;9.17;;
5961;SDS011;3007;50.770;0.250;2023-11-19T02:52:50;54.70;;;9.27;;
5961;SDS011;3007;50.770;0.250;2023-11-19T02:55:18;43.90;;;9.10;;
5961;SDS011;3007;50.770;0.250;2023-11-19T02:57:45;50.53;;;9.73;;
5961;SDS011;3007;50.770;0.250;2023-11-19T03:00:14;56.00;;;9.60;;
5961;SDS011;3007;50.770;0.250;2023-11-19T03:02:44;57.67;;;11.83;;
5961;SDS011;3007;50.770;0.250;2023-11-19T03:05:13;55.23;;;10.87;;
5961;SDS011;3007;50.770;0.250;2023-11-19T03:07:41;47.93;;;9.20;;
5961;SDS011;3007;50.770;0.250;2023-11-19T03:10:09;54.40;;;11.07;;
5961;SDS011;3007;50.770;0.250;2023-11-19T03:12:38;53.23;;;11.10;;
5961;SDS011;3007;50.770;0.250;2023-11-19T03:15:06;54.33;;;11.43;;
5961;SDS011;3007;50.770;0.250;2023-11-19T03:17:35;52.10;;;10.93;;
5961;SDS011;3007;50.770;0.250;2023-11-19T03:20:04;51.33;;;10.57;;
5961;SDS011;3007;50.770;0.250;2023-11-19T03:22:34;50.37;;;9.60;;
5961;SDS011;3007;50.770;0.250;2023-11-19T03:25:03;52.80;;;10.23;;
5961;SDS011;3007;50.770;0.250;2023-11-19T03:27:33;49.73;;;9.37;;
5961;SDS011;3007;50.770;0.250;2023-11-19T03:30:00;53.07;;;10.23;;
5961;SDS011;3007;50.770;0.250;2023-11-19T03:32:27;53.80;;;9.80;;
5961;SDS011;3007;50.770;0.250;2023-11-19T03:34:54;50.27;;;10.07;;
5961;SDS011;3007;50.770;0.250;2023-11-19T03:37:23;45.03;;;9.13;;
5961;SDS011;3007;50.770;0.250;2023-11-19T03:39:50;63.07;;;12.10;;
5961;SDS011;3007;50.770;0.250;2023-11-19T03:42:18;53.63;;;10.47;;
5961;SDS011;3007;50.770;0.250;2023-11-19T03:44:45;57.07;;;10.43;;
5961;SDS011;3007;50.770;0.250;2023-11-19T03:47:14;51.23;;;9.87;;
5961;SDS011;3007;50.770;0.250;2023-11-19T03:49:41;50.87;;;11.13;;
5961;SDS011;3007;50.770;0.250;2023-11-19T03:52:09;43.97;;;8.40;;
5961;SDS011;3007;50.770;0.250;2023-11-19T03:54:37;55.67;;;9.47;;
5961;SDS011;3007;50.770;0.250;2023-11-19T03:57:05;54.30;;;11.00;;
5961;SDS011;3007;50.770;0.250;2023-11-19T03:59:32;59.43;;;9.93;;
5961;SDS011;3007;50.770;0.250;2023-11-19T04:01:58;55.47;;;9.80;;
5961;SDS011;3007;50.770;0.250;2023-11-19T04:04:27;65.90;;;10.47;;
5961;SDS011;3007;50.770;0.250;2023-11-19T04:06:54;58.67;;;10.40;;
5961;SDS011;3007;50.770;0.250;2023-11-19T04:09:21;59.90;;;11.33;;
5961;SDS011;3007;50.770;0.250;2023-11-19T04:11:50;55.00;;;10.83;;
5961;SDS011;3007;50.770;0.250;2023-11-19T04:14:16;63.20;;;11.57;;
5961;SDS011;3007;50.770;0.250;2023-11-19T04:16:44;59.27;;;10.73;;
5961;SDS011;3007;50.770;0.250;2023-11-19T04:19:11;54.70;;;9.83;;
5961;SDS011;3007;50.770;0.250;2023-11-19T04:21:39;48.90;;;9.73;;
5961;SDS011;3007;50.770;0.250;2023-11-19T04:24:07;50.87;;;10.20;;
5961;SDS011;3007;50.770;0.250;2023-11-19T04:26:39;51.63;;;9.70;;
5961;SDS011;3007;50.770;0.250;2023-11-19T04:29:08;48.13;;;11.20;;
5961;SDS011;3007;50.770;0.250;2023-11-19T04:31:36;59.33;;;10.63;;
5961;SDS011;3007;50.770;0.250;2023-11-19T04:34:03;45.93;;;9.63;;
5961;SDS011;3007;50.770;0.250;2023-11-19T04:36:30;58.67;;;10.37;;
5961;SDS011;3007;50.770;0.250;2023-11-19T04:38:56;54.60;;;9.23;;
5961;SDS011;3007;50.770;0.250;2023-11-19T04:41:24;51.07;;;11.00;;
5961;SDS011;3007;50.770;0.250;2023-11-19T04:43:52;56.87;;;10.73;;
5961;SDS011;3007;50.770;0.250;2023-11-19T04:46:20;50.87;;;10.30;;
5961;SDS011;3007;50.770;0.250;2023-11-19T04:48:48;57.87;;;10.67;;
5961;SDS011;3007;50.770;0.250;2023-11-19T04:51:15;56.87;;;9.83;;
5961;SDS011;3007;50.770;0.250;2023-11-19T04:53:42;50.00;;;9.27;;
5961;SDS011;3007;50.770;0.250;2023-11-19T04:56:09;42.33;;;9.00;;
5961;SDS011;3007;50.770;0.250;2023-11-19T04:58:37;48.57;;;9.10;;
5961;SDS011;3007;50.770;0.250;2023-11-19T05:01:04;48.40;;;9.30;;
5961;SDS011;3007;50.770;0.250;2023-11-19T05:03:32;53.70;;;8.87;;
5961;SDS011;3007;50.770;0.250;2023-11-19T05:05:59;52.47;;;9.23;;
5961;SDS011;3007;50.770;0.250;2023-11-19T05:08:26;43.00;;;9.77;;
5961;SDS011;3007;50.770;0.250;2023-11-19T05:10:53;52.20;;;10.23;;
5961;SDS011;3007;50.770;0.250;2023-11-19T05:13:19;49.47;;;10.30;;
5961;SDS011;3007;50.770;0.250;2023-11-19T05:15:47;53.93;;;9.13;;
5961;SDS011;3007;50.770;0.250;2023-11-19T05:18:14;49.80;;;10.00;;
5961;SDS011;3007;50.770;0.250;2023-11-19T05:20:43;42.20;;;9.40;;
5961;SDS011;3007;50.770;0.250;2023-11-19T05:23:10;46.33;;;9.63;;
5961;SDS011;3007;50.770;0.250;2023-11-19T05:25:36;50.83;;;9.23;;
5961;SDS011;3007;50.770;0.250;2023-11-19T05:28:03;54.50;;;10.40;;
5961;SDS011;3007;50.770;0.250;2023-11-19T05:30:30;48.87;;;10.67;;
5961;SDS011;3007;50.770;0.250;2023-11-19T05:32:57;58.17;;;9.53;;
5961;SDS011;3007;50.770;0.250;2023-11-19T05:35:24;44.00;;;9.20;;
5961;SDS011;3007;50.770;0.250;2023-11-19T05:37:52;51.83;;;10.80;;
5961;SDS011;3007;50.770;0.250;2023-11-19T05:40:19;52.27;;;9.57;;
5961;SDS011;3007;50.770;0.250;2023-11-19T05:42:45;48.63;;;9.80;;
5961;SDS011;3007;50.770;0.250;2023-11-19T05:45:12;44.43;;;8.70;;
5961;SDS011;3007;50.770;0.250;2023-11-19T05:47:40;54.43;;;9.50;;
5961;SDS011;3007;50.770;0.250;2023-11-19T05:50:08;49.00;;;9.20;;
5961;SDS011;3007;50.770;0.250;2023-11-19T05:52:35;56.13;;;10.70;;
5961;SDS011;3007;50.770;0.250;2023-11-19T05:55:04;56.57;;;10.33;;
5961;SDS011;3007;50.770;0.250;2023-11-19T05:57:34;46.87;;;10.50;;
5961;SDS011;3007;50.770;0.250;2023-11-19T06:00:01;53.53;;;11.00;;
5961;SDS011;3007;50.770;0.250;2023-11-19T06:02:32;52.60;;;9.37;;
5961;SDS011;3007;50.770;0.250;2023-11-19T06:04:59;54.57;;;10.27;;
5961;SDS011;3007;50.770;0.250;2023-11-19T06:07:26;52.07;;;10.07;;
5961;SDS011;3007;50.770;0.250;2023-11-19T06:09:52;48.43;;;10.20;;
5961;SDS011;3007;50.770;0.250;2023-11-19T06:12:21;54.23;;;10.83;;
5961;SDS011;3007;50.770;0.250;2023-11-19T06:14:47;46.27;;;9.93;;
5961;SDS011;3007;50.770;0.250;2023-11-19T06:17:14;44.13;;;8.80;;
5961;SDS011;3007;50.770;0.250;2023-11-19T06:19:41;47.70;;;9.43;;
5961;SDS011;3007;50.770;0.250;2023-11-19T06:22:08;61.20;;;10.27;;
5961;SDS011;3007;50.770;0.250;2023-11-19T06:24:35;53.13;;;9.50;;
5961;SDS011;3007;50.770;0.250;2023-11-19T06:27:01;53.20;;;10.80;;
5961;SDS011;3007;50.770;0.250;2023-11-19T06:29:30;47.80;;;9.17;;
5961;SDS011;3007;50.770;0.250;2023-11-19T06:31:57;55.07;;;9.87;;
5961;SDS011;3007;50.770;0.250;2023-11-19T06:34:24;45.17;;;8.40;;
5961;SDS011;3007;50.770;0.250;2023-11-19T06:36:51;58.70;;;10.97;;
5961;SDS011;3007;50.770;0.250;2023-11-19T06:39:18;52.23;;;10.73;;
5961;SDS011;3007;50.770;0.250;2023-11-19T06:41:45;42.07;;;8.93;;
5961;SDS011;3007;50.770;0.250;2023-11-19T06:44:12;57.43;;;11.03;;
5961;SDS011;3007;50.770;0.250;2023-11-19T06:46:40;59.37;;;11.20;;
5961;SDS011;3007;50.770;0.250;2023-11-19T06:49:07;44.47;;;9.43;;
5961;SDS011;3007;50.770;0.250;2023-11-19T06:51:34;44.77;;;8.93;;
5961;SDS011;3007;50.770;0.250;2023-11-19T06:54:01;47.20;;;9.67;;
5961;SDS011;3007;50.770;0.250;2023-11-19T06:56:28;56.20;;;10.57;;
5961;SDS011;3007;50.770;0.250;2023-11-19T06:58:55;53.10;;;9.53;;
5961;SDS011;3007;50.770;0.250;2023-11-19T07:01:21;46.37;;;10.17;;
5961;SDS011;3007;50.770;0.250;2023-11-19T07:03:50;46.03;;;8.57;;
5961;SDS011;3007;50.770;0.250;2023-11-19T07:06:17;46.93;;;8.33;;
5961;SDS011;3007;50.770;0.250;2023-11-19T07:08:44;51.07;;;10.27;;
5961;SDS011;3007;50.770;0.250;2023-11-19T07:11:11;46.47;;;8.47;;
5961;SDS011;3007;50.770;0.250;2023-11-19T07:13:39;40.10;;;8.33;;
5961;SDS011;3007;50.770;0.250;2023-11-19T07:16:07;45.70;;;8.57;;
5961;SDS011;3007;50.770;0.250;2023-11-19T07:18:35;40.87;;;9.47;;
5961;SDS011;3007;50.770;0.250;2023-11-19T07:21:05;53.03;;;8.87;;
5961;SDS011;3007;50.770;0.250;2023-11-19T07:23:35;50.90;;;9.27;;
5961;SDS011;3007;50.770;0.250;2023-11-19T07:26:04;42.10;;;8.50;;
5961;SDS011;3007;50.770;0.250;2023-11-19T07:28:33;47.10;;;8.43;;
5961;SDS011;3007;50.770;0.250;2023-11-19T07:31:00;53.03;;;10.73;;
5961;SDS011;3007;50.770;0.250;2023-11-19T07:33:27;39.93;;;6.90;;
5961;SDS011;3007;50.770;0.250;2023-11-19T07:35:54;42.93;;;8.77;;
5961;SDS011;3007;50.770;0.250;2023-11-19T07:38:23;49.93;;;9.27;;
5961;SDS011;3007;50.770;0.250;2023-11-19T07:40:52;49.80;;;9.60;;
5961;SDS011;3007;50.770;0.250;2023-11-19T07:43:19;50.50;;;9.43;;
5961;SDS011;3007;50.770;0.250;2023-11-19T07:45:46;54.23;;;9.93;;
5961;SDS011;3007;50.770;0.250;2023-11-19T07:48:13;47.60;;;8.97;;
5961;SDS011;3007;50.770;0.250;2023-11-19T07:50:40;52.03;;;9.20;;
5961;SDS011;3007;50.770;0.250;2023-11-19T07:53:07;45.53;;;8.67;;
5961;SDS011;3007;50.770;0.250;2023-11-19T07:55:35;52.60;;;11.97;;
5961;SDS011;3007;50.770;0.250;2023-11-19T07:58:02;44.77;;;10.07;;
5961;SDS011;3007;50.770;0.250;2023-11-19T08:00:29;45.10;;;8.77;;
5961;SDS011;3007;50.770;0.250;2023-11-19T08:02:56;43.70;;;8.03;;
5961;SDS011;3007;50.770;0.250;2023-11-19T08:05:22;46.57;;;8.83;;
5961;SDS011;3007;50.770;0.250;2023-11-19T08:07:49;51.65;;;10.75;;
5961;SDS011;3007;50.770;0.250;2023-11-19T08:10:18;48.67;;;9.87;;
5961;SDS011;3007;50.770;0.250;2023-11-19T08:12:46;53.83;;;11.17;;
5961;SDS011;3007;50.770;0.250;2023-11-19T08:15:12;47.30;;;9.87;;
5961;SDS011;3007;50.770;0.250;2023-11-19T08:17:40;49.97;;;9.20;;
5961;SDS011;3007;50.770;0.250;2023-11-19T08:20:08;46.80;;;9.90;;
5961;SDS011;3007;50.770;0.250;2023-11-19T08:22:35;41.43;;;8.33;;
5961;SDS011;3007;50.770;0.250;2023-11-19T08:25:02;46.03;;;8.77;;
5961;SDS011;3007;50.770;0.250;2023-11-19T08:27:30;41.00;;;8.90;;
5961;SDS011;3007;50.770;0.250;2023-11-19T08:29:58;44.93;;;8.90;;
5961;SDS011;3007;50.770;0.250;2023-11-19T08:32:25;38.13;;;8.67;;
5961;SDS011;3007;50.770;0.250;2023-11-19T08:34:54;48.30;;;10.40;;
5961;SDS011;3007;50.770;0.250;2023-11-19T08:37:21;50.70;;;10.37;;
5961;SDS011;3007;50.770;0.250;2023-11-19T08:39:47;42.60;;;8.33;;
5961;SDS011;3007;50.770;0.250;2023-11-19T08:42:15;46.17;;;9.47;;
5961;SDS011;3007;50.770;0.250;2023-11-19T08:44:42;48.23;;;9.57;;
5961;SDS011;3007;50.770;0.250;2023-11-19T08:47:13;45.93;;;8.60;;
5961;SDS011;3007;50.770;0.250;2023-11-19T08:49:41;41.70;;;8.23;;
5961;SDS011;3007;50.770;0.250;2023-11-19T08:52:07;50.50;;;9.17;;
5961;SDS011;3007;50.770;0.250;2023-11-19T08:54:35;37.97;;;7.30;;
5961;SDS011;3007;50.770;0.250;2023-11-19T08:57:02;39.93;;;9.13;;
5961;SDS011;3007;50.770;0.250;2023-11-19T08:59:29;42.67;;;7.80;;
5961;SDS011;3007;50.770;0.250;2023-11-19T09:01:56;46.72;;;10.02;;
5961;SDS011;3007;50.770;0.250;2023-11-19T09:04:24;46.30;;;9.03;;
5961;SDS011;3007;50.770;0.250;2023-11-19T09:06:51;50.37;;;9.20;;
5961;SDS011;3007;50.770;0.250;2023-11-19T09:09:18;40.40;;;9.87;;
5961;SDS011;3007;50.770;0.250;2023-11-19T09:11:45;52.80;;;10.07;;
5961;SDS011;3007;50.770;0.250;2023-11-19T09:14:11;51.20;;;9.00;;
5961;SDS011;3007;50.770;0.250;2023-11-19T09:16:38;53.57;;;8.87;;
5961;SDS011;3007;50.770;0.250;2023-11-19T09:19:05;51.90;;;10.00;;
5961;SDS011;3007;50.770;0.250;2023-11-19T09:21:33;43.00;;;8.93;;
5961;SDS011;3007;50.770;0.250;2023-11-19T09:24:03;41.17;;;8.57;;
5961;SDS011;3007;50.770;0.250;2023-11-19T09:26:32;46.30;;;9.30;;
5961;SDS011;3007;50.770;0.250;2023-11-19T09:28:59;49.07;;;9.87;;
5961;SDS011;3007;50.770;0.250;2023-11-19T09:31:26;51.97;;;10.03;;
5961;SDS011;3007;50.770;0.250;2023-11-19T09:33:53;36.53;;;8.60;;
5961;SDS011;3007;50.770;0.250;2023-11-19T09:36:20;41.63;;;8.00;;
5961;SDS011;3007;50.770;0.250;2023-11-19T09:38:48;39.83;;;8.97;;
5961;SDS011;3007;50.770;0.250;2023-11-19T09:41:14;43.07;;;8.03;;
5961;SDS011;3007;50.770;0.250;2023-11-19T09:43:44;38.13;;;8.77;;
5961;SDS011;3007;50.770;0.250;2023-11-19T09:46:12;41.03;;;7.93;;
5961;SDS011;3007;50.770;0.250;2023-11-19T09:48:41;35.57;;;7.10;;
5961;SDS011;3007;50.770;0.250;2023-11-19T09:51:09;30.10;;;5.87;;
5961;SDS011;3007;50.770;0.250;2023-11-19T09:53:37;25.77;;;5.67;;
5961;SDS011;3007;50.770;0.250;2023-11-19T09:56:06;28.23;;;5.93;;
5961;SDS011;3007;50.770;0.250;2023-11-19T09:58:34;26.73;;;5.80;;
5961;SDS011;3007;50.770;0.250;2023-11-19T10:01:01;22.27;;;4.77;;
5961;SDS011;3007;50.770;0.250;2023-11-19T10:03:32;23.10;;;5.00;;
5961;SDS011;3007;50.770;0.250;2023-11-19T10:06:00;22.37;;;4.83;;
5961;SDS011;3007;50.770;0.250;2023-11-19T10:08:28;21.80;;;5.13;;
5961;SDS011;3007;50.770;0.250;2023-11-19T10:10:55;22.33;;;5.47;;
5961;SDS011;3007;50.770;0.250;2023-11-19T10:13:27;32.47;;;6.03;;
5961;SDS011;3007;50.770;0.250;2023-11-19T10:15:55;35.03;;;6.70;;
5961;SDS011;3007;50.770;0.250;2023-11-19T10:18:23;29.27;;;6.70;;
5961;SDS011;3007;50.770;0.250;2023-11-19T10:20:51;34.07;;;8.00;;
5961;SDS011;3007;50.770;0.250;2023-11-19T10:23:18;37.47;;;7.90;;
5961;SDS011;3007;50.770;0.250;2023-11-19T10:25:45;37.57;;;8.23;;
5961;SDS011;3007;50.770;0.250;2023-11-19T10:28:14;40.73;;;8.63;;
5961;SDS011;3007;50.770;0.250;2023-11-19T10:30:43;35.90;;;8.50;;
5961;SDS011;3007;50.770;0.250;2023-11-19T10:33:11;41.30;;;8.30;;
5961;SDS011;3007;50.770;0.250;2023-11-19T10:35:50;29.97;;;7.53;;
5961;SDS011;3007;50.770;0.250;2023-11-19T10:38:18;35.13;;;7.73;;
5961;SDS011;3007;50.770;0.250;2023-11-19T10:40:46;37.17;;;7.77;;
5961;SDS011;3007;50.770;0.250;2023-11-19T10:43:13;43.27;;;8.43;;
5961;SDS011;3007;50.770;0.250;2023-11-19T10:45:40;37.97;;;8.60;;
5961;SDS011;3007;50.770;0.250;2023-11-19T10:48:08;42.43;;;8.07;;
5961;SDS011;3007;50.770;0.250;2023-11-19T10:50:35;41.80;;;8.67;;
5961;SDS011;3007;50.770;0.250;2023-11-19T10:53:04;36.87;;;8.37;;
5961;SDS011;3007;50.770;0.250;2023-11-19T10:55:33;37.17;;;7.53;;
5961;SDS011;3007;50.770;0.250;2023-11-19T10:58:04;37.30;;;8.67;;
5961;SDS011;3007;50.770;0.250;2023-11-19T11:00:34;43.50;;;7.90;;
5961;SDS011;3007;50.770;0.250;2023-11-19T11:03:07;38.10;;;8.53;;
5961;SDS011;3007;50.770;0.250;2023-11-19T11:05:38;32.03;;;7.07;;
5961;SDS011;3007;50.770;0.250;2023-11-19T11:08:07;28.67;;;6.97;;
5961;SDS011;3007;50.770;0.250;2023-11-19T11:10:35;35.50;;;7.73;;
5961;SDS011;3007;50.770;0.250;2023-11-19T11:13:05;32.77;;;7.20;;
5961;SDS011;3007;50.770;0.250;2023-11-19T11:15:32;36.53;;;7.63;;
5961;SDS011;3007;50.770;0.250;2023-11-19T11:18:00;35.83;;;7.23;;
5961;SDS011;3007;50.770;0.250;2023-11-19T11:20:30;44.57;;;7.27;;
5961;SDS011;3007;50.770;0.250;2023-11-19T11:23:12;39.83;;;9.83;;
5961;SDS011;3007;50.770;0.250;2023-11-19T11:25:58;38.93;;;10.10;;
5961;SDS011;3007;50.770;0.250;2023-11-19T11:28:37;44.20;;;8.97;;
5961;SDS011;3007;50.770;0.250;2023-11-19T11:31:21;45.43;;;8.20;;
5961;SDS011;3007;50.770;0.250;2023-11-19T11:34:08;42.60;;;9.27;;
5961;SDS011;3007;50.770;0.250;2023-11-19T11:36:53;39.73;;;8.77;;
5961;SDS011;3007;50.770;0.250;2023-11-19T11:39:26;46.07;;;10.43;;
5961;SDS011;3007;50.770;0.250;2023-11-19T11:44:58;35.60;;;7.80;;
5961;SDS011;3007;50.770;0.250;2023-11-19T11:47:27;37.23;;;8.63;;
5961;SDS011;3007;50.770;0.250;2023-11-19T11:50:33;38.40;;;9.30;;
5961;SDS011;3007;50.770;0.250;2023-11-19T11:53:15;32.13;;;7.20;;
5961;SDS011;3007;50.770;0.250;2023-11-19T11:55:52;42.93;;;7.93;;
5961;SDS011;3007;50.770;0.250;2023-11-19T11:58:21;45.70;;;7.97;;
5961;SDS011;3007;50.770;0.250;2023-11-19T12:00:52;44.80;;;8.67;;
5961;SDS011;3007;50.770;0.250;2023-11-19T12:03:19;49.93;;;11.27;;
5961;SDS011;3007;50.770;0.250;2023-11-19T12:05:47;43.57;;;9.30;;
5961;SDS011;3007;50.770;0.250;2023-11-19T12:08:18;48.33;;;9.23;;
5961;SDS011;3007;50.770;0.250;2023-11-19T12:10:46;46.30;;;9.80;;
5961;SDS011;3007;50.770;0.250;2023-11-19T12:13:14;36.17;;;8.13;;
5961;SDS011;3007;50.770;0.250;2023-11-19T12:18:34;42.07;;;8.47;;
5961;SDS011;3007;50.770;0.250;2023-11-19T12:21:01;50.60;;;9.60;;
5961;SDS011;3007;50.770;0.250;2023-11-19T12:23:32;45.37;;;8.20;;
5961;SDS011;3007;50.770;0.250;2023-11-19T12:25:59;37.33;;;7.60;;
5961;SDS011;3007;50.770;0.250;2023-11-19T12:28:26;39.43;;;8.40;;
5961;SDS011;3007;50.770;0.250;2023-11-19T12:30:53;51.87;;;9.90;;
5961;SDS011;3007;50.770;0.250;2023-11-19T12:33:20;37.73;;;7.93;;
5961;SDS011;3007;50.770;0.250;2023-11-19T12:35:47;42.17;;;8.93;;
5961;SDS011;3007;50.770;0.250;2023-11-19T12:38:20;38.80;;;8.20;;
5961;SDS011;3007;50.770;0.250;2023-11-19T12:41:00;38.70;;;8.37;;
5961;SDS011;3007;50.770;0.250;2023-11-19T12:43:29;44.70;;;8.47;;
5961;SDS011;3007;50.770;0.250;2023-11-19T12:45:55;48.87;;;8.43;;
5961;SDS011;3007;50.770;0.250;2023-11-19T12:48:22;48.33;;;9.23;;
5961;SDS011;3007;50.770;0.250;2023-11-19T12:50:52;42.63;;;8.67;;
5961;SDS011;3007;50.770;0.250;2023-11-19T12:53:20;40.00;;;7.90;;
5961;SDS011;3007;50.770;0.250;2023-11-19T12:55:47;43.67;;;8.60;;
5961;SDS011;3007;50.770;0.250;2023-11-19T12:58:29;37.40;;;7.93;;
5961;SDS011;3007;50.770;0.250;2023-11-19T13:00:59;40.03;;;8.53;;
5961;SDS011;3007;50.770;0.250;2023-11-19T13:03:30;43.63;;;9.33;;
5961;SDS011;3007;50.770;0.250;2023-11-19T13:06:01;46.73;;;9.17;;
5961;SDS011;3007;50.770;0.250;2023-11-19T13:08:35;48.90;;;9.50;;
5961;SDS011;3007;50.770;0.250;2023-11-19T13:11:03;40.63;;;8.73;;
5961;SDS011;3007;50.770;0.250;2023-11-19T13:13:32;53.50;;;8.73;;
5961;SDS011;3007;50.770;0.250;2023-11-19T13:16:03;42.07;;;8.97;;
5961;SDS011;3007;50.770;0.250;2023-11-19T13:18:31;41.67;;;8.43;;
5961;SDS011;3007;50.770;0.250;2023-11-19T13:20:58;43.13;;;8.60;;
5961;SDS011;3007;50.770;0.250;2023-11-19T13:23:24;49.23;;;9.53;;
5961;SDS011;3007;50.770;0.250;2023-11-19T13:25:52;40.23;;;8.30;;
5961;SDS011;3007;50.770;0.250;2023-11-19T13:28:18;43.03;;;8.73;;
5961;SDS011;3007;50.770;0.250;2023-11-19T13:30:47;42.57;;;8.90;;
5961;SDS011;3007;50.770;0.250;2023-11-19T13:33:14;34.33;;;8.43;;
5961;SDS011;3007;50.770;0.250;2023-11-19T13:35:41;37.97;;;8.13;;
5961;SDS011;3007;50.770;0.250;2023-11-19T13:38:08;37.20;;;9.23;;
5961;SDS011;3007;50.770;0.250;2023-11-19T13:40:35;40.43;;;8.83;;
5961;SDS011;3007;50.770;0.250;2023-11-19T13:43:02;33.37;;;10.13;;
5961;SDS011;3007;50.770;0.250;2023-11-19T13:45:29;37.50;;;8.20;;
5961;SDS011;3007;50.770;0.250;2023-11-19T13:47:57;44.37;;;9.53;;
5961;SDS011;3007;50.770;0.250;2023-11-19T13:50:24;33.87;;;8.07;;
5961;SDS011;3007;50.770;0.250;2023-11-19T13:52:50;37.03;;;8.40;;
5961;SDS011;3007;50.770;0.250;2023-11-19T13:55:18;36.90;;;7.40;;
5961;SDS011;3007;50.770;0.250;2023-11-19T13:57:44;39.63;;;8.60;;
5961;SDS011;3007;50.770;0.250;2023-11-19T14:00:12;32.87;;;7.60;;
5961;SDS011;3007;50.770;0.250;2023-11-19T14:02:41;34.37;;;7.07;;
5961;SDS011;3007;50.770;0.250;2023-11-19T14:05:10;34.33;;;7.80;;
5961;SDS011;3007;50.770;0.250;2023-11-19T14:07:37;30.23;;;6.93;;
5961;SDS011;3007;50.770;0.250;2023-11-19T14:10:04;30.63;;;7.57;;
5961;SDS011;3007;50.770;0.250;2023-11-19T14:12:31;26.27;;;5.83;;
5961;SDS011;3007;50.770;0.250;2023-11-19T14:14:58;31.37;;;7.53;;
5961;SDS011;3007;50.770;0.250;2023-11-19T14:17:26;36.40;;;7.67;;
5961;SDS011;3007;50.770;0.250;2023-11-19T14:19:52;35.40;;;7.93;;
5961;SDS011;3007;50.770;0.250;2023-11-19T14:22:21;40.13;;;7.73;;
5961;SDS011;3007;50.770;0.250;2023-11-19T14:24:47;44.07;;;7.83;;
5961;SDS011;3007;50.770;0.250;2023-11-19T14:27:14;44.63;;;9.20;;
5961;SDS011;3007;50.770;0.250;2023-11-19T14:29:42;39.10;;;8.50;;
5961;SDS011;3007;50.770;0.250;2023-11-19T14:32:09;31.70;;;7.70;;
5961;SDS011;3007;50.770;0.250;2023-11-19T14:34:36;34.47;;;8.00;;
5961;SDS011;3007;50.770;0.250;2023-11-19T14:37:03;37.10;;;8.27;;
5961;SDS011;3007;50.770;0.250;2023-11-19T14:39:33;36.63;;;7.03;;
5961;SDS011;3007;50.770;0.250;2023-11-19T14:41:59;37.57;;;8.20;;
5961;SDS011;3007;50.770;0.250;2023-11-19T14:44:29;42.57;;;8.17;;
5961;SDS011;3007;50.770;0.250;2023-11-19T14:46:56;31.10;;;7.17;;
5961;SDS011;3007;50.770;0.250;2023-11-19T14:49:23;48.00;;;16.80;;
5961;SDS011;3007;50.770;0.250;2023-11-19T14:51:51;39.30;;;8.23;;
5961;SDS011;3007;50.770;0.250;2023-11-19T14:54:18;34.07;;;7.83;;
5961;SDS011;3007;50.770;0.250;2023-11-19T14:56:46;34.07;;;8.03;;
5961;SDS011;3007;50.770;0.250;2023-11-19T14:59:12;41.23;;;9.10;;
5961;SDS011;3007;50.770;0.250;2023-11-19T15:01:39;37.87;;;9.13;;
5961;SDS011;3007;50.770;0.250;2023-11-19T15:04:06;39.37;;;8.07;;
5961;SDS011;3007;50.770;0.250;2023-11-19T15:06:33;41.20;;;7.50;;
5961;SDS011;3007;50.770;0.250;2023-11-19T15:09:00;44.43;;;8.77;;
5961;SDS011;3007;50.770;0.250;2023-11-19T15:11:27;42.83;;;8.03;;